Aviation Digital Data Service (ADDS)

Output produced by METARs form (0810 UTC 24 May 2018)
found at http://www.aviationweather.gov/adds/metars/
 
EVLA 240750Z AUTO 34005KT 300V010 9999 NCD 19/13 Q1028
TAF EVLA 240504Z 2406/2506 36007KT 9999 NSC 
     TEMPO 2406/2407 BKN003
       
EVRA 240750Z 34009KT CAVOK 17/13 Q1026 NOSIG
TAF EVRA 240800Z 2409/2509 34010KT CAVOK 
     TEMPO 2410/2415 36015G25KT 
     BECMG 2418/2420 04005KT
       
EVVA 240750Z AUTO 36009KT CAVOK 16/12 Q1028